aviador You're here:

CYHD Decoded Metar

DRYDEN in ON, CANADA
Report Time2018-07-19 19:00:00
UTC Time2018-07-19 19:24:58
Flight Rules vfr VFR
Wind200° at 11 Gusting to 20 kt
W.Decomp.*RWY 24: 8.4 kt HW 7.1 kt LCW
RWY 12: 1.9 kt HW 10.8 kt RCW
W.Rank200° ranks 2
Current wind is above 200° avg. (8.5)
Visibility9999 m
Phenomena:N/A
Clouds:Few 045 Hf
Expected CloudBase > 4,000 ft AGL from Temp-Dew spread
CeilingNone
Temp27°C (ISA +15)
Dew Point17°C (54% RH)
Heat Index27.7°C
AAT25.4°C
QNH1009 hPa
Density Alt3,442 ft
Elevation1,355 ft
Report Wrong Elevation
Raw Report
CYHD 191900Z AUTO 20011G20KT 170V230 9SM FEW045 27/17 A2979 RMK
SLP091 DENSITY ALT 3200FT=

Extra information for CYHD:More info

Metar Taf Metar & Taf Last 4 Metars F.Rules Stats Wind Profile Meteogram Temp Stats Airport Information Weather charts Add Link Nearby VenuesMetar ALERT Operation Metar Decoded Social comments